sensor_id;sensor_type;location;lat;lon;timestamp;pressure;altitude;pressure_sealevel;temperature;humidity
68145;BME280;55400;51.824;-0.196;2023-07-02T00:02:59;100023.56999999999;;;17.34;50.65
68145;BME280;55400;51.824;-0.196;2023-07-02T00:06:58;100028.86;;;17.26;50.95
68145;BME280;55400;51.824;-0.196;2023-07-02T00:10:58;100028.86;;;17.17;50.93
68145;BME280;55400;51.824;-0.196;2023-07-02T00:14:59;100028.38;;;17.14;51.35
68145;BME280;55400;51.824;-0.196;2023-07-02T00:18:58;100028.89;;;17.07;51.47
68145;BME280;55400;51.824;-0.196;2023-07-02T00:22:59;100033.06;;;17.04;51.83
68145;BME280;55400;51.824;-0.196;2023-07-02T00:26:58;100028.83;;;17.02;51.93
68145;BME280;55400;51.824;-0.196;2023-07-02T00:30:59;100028.83;;;16.99;52.05
68145;BME280;55400;51.824;-0.196;2023-07-02T00:34:58;100029.61;;;16.95;52.40
68145;BME280;55400;51.824;-0.196;2023-07-02T00:38:59;100033.45000000001;;;16.90;52.12
68145;BME280;55400;51.824;-0.196;2023-07-02T00:42:58;100033.45000000001;;;16.89;52.46
68145;BME280;55400;51.824;-0.196;2023-07-02T00:46:59;100034.67000000001;;;16.86;52.41
68145;BME280;55400;51.824;-0.196;2023-07-02T00:50:59;100039.37;;;16.82;52.67
68145;BME280;55400;51.824;-0.196;2023-07-02T00:54:59;100042.0;;;16.78;53.10
68145;BME280;55400;51.824;-0.196;2023-07-02T00:58:59;100042.0;;;16.73;53.10
68145;BME280;55400;51.824;-0.196;2023-07-02T01:03:49;100041.41;;;16.65;53.39
68145;BME280;55400;51.824;-0.196;2023-07-02T01:06:59;100041.41;;;16.61;53.39
68145;BME280;55400;51.824;-0.196;2023-07-02T01:10:59;100052.84;;;16.57;53.63
68145;BME280;55400;51.824;-0.196;2023-07-02T01:14:59;100056.84;;;16.58;53.63
68145;BME280;55400;51.824;-0.196;2023-07-02T01:18:59;100057.20999999999;;;16.55;53.79
68145;BME280;55400;51.824;-0.196;2023-07-02T01:22:59;100057.20999999999;;;16.52;53.72
68145;BME280;55400;51.824;-0.196;2023-07-02T01:26:59;100059.53;;;16.47;53.81
68145;BME280;55400;51.824;-0.196;2023-07-02T01:30:59;100059.53;;;16.41;53.81
68145;BME280;55400;51.824;-0.196;2023-07-02T01:34:59;100058.77;;;16.32;53.91
68145;BME280;55400;51.824;-0.196;2023-07-02T01:38:59;100064.86;;;16.29;54.37
68145;BME280;55400;51.824;-0.196;2023-07-02T01:42:59;100064.86;;;16.21;54.41
68145;BME280;55400;51.824;-0.196;2023-07-02T01:46:59;100067.38;;;16.16;54.33
68145;BME280;55400;51.824;-0.196;2023-07-02T01:50:59;100070.34999999999;;;16.13;54.35
68145;BME280;55400;51.824;-0.196;2023-07-02T01:54:59;100070.34999999999;;;16.10;54.56
68145;BME280;55400;51.824;-0.196;2023-07-02T01:58:59;100071.7;;;16.07;54.66
68145;BME280;55400;51.824;-0.196;2023-07-02T02:02:59;100073.77;;;16.01;54.82
68145;BME280;55400;51.824;-0.196;2023-07-02T02:06:59;100073.1;;;15.93;54.92
68145;BME280;55400;51.824;-0.196;2023-07-02T02:10:59;100077.59;;;15.91;55.11
68145;BME280;55400;51.824;-0.196;2023-07-02T02:14:59;100075.72;;;15.82;55.11
68145;BME280;55400;51.824;-0.196;2023-07-02T02:18:59;100072.43;;;15.74;55.42
68145;BME280;55400;51.824;-0.196;2023-07-02T02:22:59;100077.58;;;15.67;55.67
68145;BME280;55400;51.824;-0.196;2023-07-02T02:26:59;100077.58;;;15.59;55.83
68145;BME280;55400;51.824;-0.196;2023-07-02T02:30:59;100074.83;;;15.53;56.02
68145;BME280;55400;51.824;-0.196;2023-07-02T02:34:59;100076.62;;;15.48;56.04
68145;BME280;55400;51.824;-0.196;2023-07-02T02:38:59;100077.66;;;15.46;56.29
68145;BME280;55400;51.824;-0.196;2023-07-02T02:42:59;100085.1;;;15.40;56.29
68145;BME280;55400;51.824;-0.196;2023-07-02T02:46:59;100086.73999999999;;;15.36;56.35
68145;BME280;55400;51.824;-0.196;2023-07-02T02:50:59;100084.64;;;15.33;56.45
68145;BME280;55400;51.824;-0.196;2023-07-02T02:54:59;100084.64;;;15.28;56.40
68145;BME280;55400;51.824;-0.196;2023-07-02T02:58:59;100081.52;;;15.19;56.58
68145;BME280;55400;51.824;-0.196;2023-07-02T03:02:59;100084.63;;;15.14;56.88
68145;BME280;55400;51.824;-0.196;2023-07-02T03:06:59;100085.16;;;15.12;57.25
68145;BME280;55400;51.824;-0.196;2023-07-02T03:10:59;100085.16;;;15.13;57.25
68145;BME280;55400;51.824;-0.196;2023-07-02T03:14:59;100090.61;;;15.14;57.23
68145;BME280;55400;51.824;-0.196;2023-07-02T03:18:59;100093.18;;;15.13;57.14
68145;BME280;55400;51.824;-0.196;2023-07-02T03:22:59;100091.02;;;15.12;57.27
68145;BME280;55400;51.824;-0.196;2023-07-02T03:26:59;100092.8;;;15.06;57.19
68145;BME280;55400;51.824;-0.196;2023-07-02T03:30:59;100097.15;;;14.97;57.33
68145;BME280;55400;51.824;-0.196;2023-07-02T03:35:55;100088.97;;;14.90;57.70
68145;BME280;55400;51.824;-0.196;2023-07-02T03:38:59;100088.97;;;14.85;57.70
68145;BME280;55400;51.824;-0.196;2023-07-02T03:42:59;100092.25;;;14.80;58.15
68145;BME280;55400;51.824;-0.196;2023-07-02T03:46:59;100098.91;;;14.78;58.05
68145;BME280;55400;51.824;-0.196;2023-07-02T03:51:00;100098.91;;;14.79;58.05
68145;BME280;55400;51.824;-0.196;2023-07-02T03:54:59;100106.25;;;14.78;58.12
68145;BME280;55400;51.824;-0.196;2023-07-02T03:58:59;100111.84;;;14.72;58.11
68145;BME280;55400;51.824;-0.196;2023-07-02T04:02:59;100112.97;;;14.65;58.31
68145;BME280;55400;51.824;-0.196;2023-07-02T04:06:59;100112.97;;;14.55;58.67
68145;BME280;55400;51.824;-0.196;2023-07-02T04:10:59;100112.83;;;14.45;58.65
68145;BME280;55400;51.824;-0.196;2023-07-02T04:14:59;100115.52;;;14.41;58.88
68145;BME280;55400;51.824;-0.196;2023-07-02T04:18:59;100114.89;;;14.39;58.94
68145;BME280;55400;51.824;-0.196;2023-07-02T04:22:59;100118.19;;;14.33;59.15
68145;BME280;55400;51.824;-0.196;2023-07-02T04:26:59;100116.18999999999;;;14.34;59.61
68145;BME280;55400;51.824;-0.196;2023-07-02T04:30:59;100128.02;;;14.36;59.61
68145;BME280;55400;51.824;-0.196;2023-07-02T04:35:00;100132.64;;;14.39;59.56
68145;BME280;55400;51.824;-0.196;2023-07-02T04:38:59;100132.64;;;14.40;59.55
68145;BME280;55400;51.824;-0.196;2023-07-02T04:42:59;100138.79;;;14.42;59.83
68145;BME280;55400;51.824;-0.196;2023-07-02T04:46:59;100136.28;;;14.37;59.68
68145;BME280;55400;51.824;-0.196;2023-07-02T04:50:59;100140.34;;;14.33;59.52
68145;BME280;55400;51.824;-0.196;2023-07-02T04:54:59;100143.81;;;14.36;60.21
68145;BME280;55400;51.824;-0.196;2023-07-02T04:58:59;100144.9;;;14.31;60.39
68145;BME280;55400;51.824;-0.196;2023-07-02T05:03:10;100144.93;;;14.34;60.49
68145;BME280;55400;51.824;-0.196;2023-07-02T05:06:59;100144.93;;;14.40;60.49
68145;BME280;55400;51.824;-0.196;2023-07-02T05:11:11;100153.47;;;14.41;60.89
68145;BME280;55400;51.824;-0.196;2023-07-02T05:15:32;100141.76999999999;;;14.46;60.18
68145;BME280;55400;51.824;-0.196;2023-07-02T05:17:29;100141.76999999999;;;14.46;60.18
68145;BME280;55400;51.824;-0.196;2023-07-02T05:19:35;100153.39;;;14.45;61.45
68145;BME280;55400;51.824;-0.196;2023-07-02T05:23:51;100155.88;;;14.49;61.46
68145;BME280;55400;51.824;-0.196;2023-07-02T05:26:59;100155.88;;;14.58;61.46
68145;BME280;55400;51.824;-0.196;2023-07-02T05:30:59;100153.9;;;14.68;61.19
68145;BME280;55400;51.824;-0.196;2023-07-02T05:34:59;100154.13;;;14.74;61.29
68145;BME280;55400;51.824;-0.196;2023-07-02T05:38:59;100155.67;;;14.82;61.05
68145;BME280;55400;51.824;-0.196;2023-07-02T05:42:59;100154.86;;;14.88;61.20
68145;BME280;55400;51.824;-0.196;2023-07-02T05:47:00;100154.86;;;14.96;60.92
68145;BME280;55400;51.824;-0.196;2023-07-02T05:50:59;100160.06;;;15.04;60.71
68145;BME280;55400;51.824;-0.196;2023-07-02T05:54:59;100160.06;;;15.12;60.54
68145;BME280;55400;51.824;-0.196;2023-07-02T05:58:59;100161.58;;;15.16;60.50
68145;BME280;55400;51.824;-0.196;2023-07-02T06:02:59;100158.59;;;15.21;59.81
68145;BME280;55400;51.824;-0.196;2023-07-02T06:11:00;100163.81999999999;;;15.20;59.25
68145;BME280;55400;51.824;-0.196;2023-07-02T06:14:59;100164.53;;;15.18;59.12
68145;BME280;55400;51.824;-0.196;2023-07-02T06:18:59;100165.29000000001;;;15.23;59.37
68145;BME280;55400;51.824;-0.196;2023-07-02T06:22:59;100168.05;;;15.26;58.80
68145;BME280;55400;51.824;-0.196;2023-07-02T06:27:00;100168.05;;;15.29;58.80
68145;BME280;55400;51.824;-0.196;2023-07-02T06:30:59;100170.81;;;15.32;58.23
68145;BME280;55400;51.824;-0.196;2023-07-02T06:35:00;100172.79999999999;;;15.38;58.19
68145;BME280;55400;51.824;-0.196;2023-07-02T06:39:00;100172.79999999999;;;15.40;58.30
68145;BME280;55400;51.824;-0.196;2023-07-02T06:43:00;100174.59;;;15.42;58.37
68145;BME280;55400;51.824;-0.196;2023-07-02T06:47:00;100176.06;;;15.51;58.11
68145;BME280;55400;51.824;-0.196;2023-07-02T06:51:00;100179.71;;;15.62;58.02
68145;BME280;55400;51.824;-0.196;2023-07-02T06:55:00;100176.9;;;15.74;57.73
68145;BME280;55400;51.824;-0.196;2023-07-02T06:59:00;100180.40999999999;;;15.84;57.43
68145;BME280;55400;51.824;-0.196;2023-07-02T07:03:00;100180.40999999999;;;15.92;57.43
68145;BME280;55400;51.824;-0.196;2023-07-02T07:07:00;100185.06;;;15.95;56.43
68145;BME280;55400;51.824;-0.196;2023-07-02T07:11:00;100186.91;;;16.03;56.18
68145;BME280;55400;51.824;-0.196;2023-07-02T07:15:00;100186.91;;;16.06;55.80
68145;BME280;55400;51.824;-0.196;2023-07-02T07:19:00;100185.19;;;16.10;55.28
68145;BME280;55400;51.824;-0.196;2023-07-02T07:23:01;100185.33;;;16.16;54.51
68145;BME280;55400;51.824;-0.196;2023-07-02T07:27:00;100191.09;;;16.20;54.17
68145;BME280;55400;51.824;-0.196;2023-07-02T07:31:00;100189.20000000001;;;16.26;53.39
68145;BME280;55400;51.824;-0.196;2023-07-02T07:35:00;100195.78;;;16.34;53.98
68145;BME280;55400;51.824;-0.196;2023-07-02T07:39:00;100195.78;;;16.42;53.98
68145;BME280;55400;51.824;-0.196;2023-07-02T07:43:00;100199.67;;;16.51;54.39
68145;BME280;55400;51.824;-0.196;2023-07-02T07:47:00;100203.45;;;16.59;54.33
68145;BME280;55400;51.824;-0.196;2023-07-02T07:51:00;100203.52;;;16.62;53.86
68145;BME280;55400;51.824;-0.196;2023-07-02T07:55:00;100199.37999999999;;;16.66;53.51
68145;BME280;55400;51.824;-0.196;2023-07-02T07:59:00;100198.26000000001;;;16.74;53.57
68145;BME280;55400;51.824;-0.196;2023-07-02T08:03:00;100195.0;;;16.81;53.88
68145;BME280;55400;51.824;-0.196;2023-07-02T08:07:00;100198.27;;;16.82;53.35
68145;BME280;55400;51.824;-0.196;2023-07-02T08:11:00;100192.6;;;16.86;52.74
68145;BME280;55400;51.824;-0.196;2023-07-02T08:15:00;100192.6;;;16.94;52.08
68145;BME280;55400;51.824;-0.196;2023-07-02T08:19:00;100192.98999999999;;;17.03;52.08
68145;BME280;55400;51.824;-0.196;2023-07-02T08:23:00;100186.51999999999;;;17.04;52.22
68145;BME280;55400;51.824;-0.196;2023-07-02T08:27:01;100191.76;;;17.06;51.11
68145;BME280;55400;51.824;-0.196;2023-07-02T08:31:00;100189.88;;;17.10;51.35
68145;BME280;55400;51.824;-0.196;2023-07-02T08:35:00;100189.88;;;17.14;51.35
68145;BME280;55400;51.824;-0.196;2023-07-02T08:39:00;100185.94;;;17.22;50.48
68145;BME280;55400;51.824;-0.196;2023-07-02T08:43:00;100185.94;;;17.27;50.83
68145;BME280;55400;51.824;-0.196;2023-07-02T08:47:00;100192.44;;;17.34;50.27
68145;BME280;55400;51.824;-0.196;2023-07-02T08:51:00;100179.31999999999;;;17.45;50.27
68145;BME280;55400;51.824;-0.196;2023-07-02T08:55:00;100185.58;;;17.66;50.16
68145;BME280;55400;51.824;-0.196;2023-07-02T08:59:00;100180.15000000001;;;17.75;49.07
68145;BME280;55400;51.824;-0.196;2023-07-02T09:03:10;100184.01;;;17.76;49.60
68145;BME280;55400;51.824;-0.196;2023-07-02T09:07:03;100184.01;;;17.78;49.60
68145;BME280;55400;51.824;-0.196;2023-07-02T09:11:08;100179.81;;;17.75;49.46
68145;BME280;55400;51.824;-0.196;2023-07-02T09:15:01;100179.07;;;17.71;49.08
68145;BME280;55400;51.824;-0.196;2023-07-02T09:19:01;100180.8;;;17.81;49.43
68145;BME280;55400;51.824;-0.196;2023-07-02T09:23:00;100189.17;;;17.86;49.43
68145;BME280;55400;51.824;-0.196;2023-07-02T09:27:15;100181.97;;;17.85;47.88
68145;BME280;55400;51.824;-0.196;2023-07-02T09:31:44;100180.33;;;17.88;47.36
68145;BME280;55400;51.824;-0.196;2023-07-02T09:35:00;100178.89;;;17.93;47.36
68145;BME280;55400;51.824;-0.196;2023-07-02T09:39:00;100187.73;;;17.90;48.53
68145;BME280;55400;51.824;-0.196;2023-07-02T09:43:00;100189.29000000001;;;17.81;48.13
68145;BME280;55400;51.824;-0.196;2023-07-02T09:51:00;100192.8;;;17.76;48.82
68145;BME280;55400;51.824;-0.196;2023-07-02T09:55:00;100192.04999999999;;;17.80;48.72
68145;BME280;55400;51.824;-0.196;2023-07-02T09:59:00;100176.89;;;17.81;48.72
68145;BME280;55400;51.824;-0.196;2023-07-02T10:03:00;100179.15000000001;;;17.91;48.04
68145;BME280;55400;51.824;-0.196;2023-07-02T10:07:00;100180.69;;;17.89;48.04
68145;BME280;55400;51.824;-0.196;2023-07-02T10:11:08;100180.89;;;17.81;47.79
68145;BME280;55400;51.824;-0.196;2023-07-02T10:15:00;100178.18;;;17.79;48.37
68145;BME280;55400;51.824;-0.196;2023-07-02T10:19:08;100177.98;;;17.75;48.06
68145;BME280;55400;51.824;-0.196;2023-07-02T10:23:00;100179.06;;;17.78;48.06
68145;BME280;55400;51.824;-0.196;2023-07-02T10:27:01;100185.63;;;17.84;48.43
68145;BME280;55400;51.824;-0.196;2023-07-02T10:31:00;100179.33;;;17.88;47.77
68145;BME280;55400;51.824;-0.196;2023-07-02T10:35:00;100190.69;;;17.92;47.77
68145;BME280;55400;51.824;-0.196;2023-07-02T10:39:01;100187.55;;;17.96;48.34
68145;BME280;55400;51.824;-0.196;2023-07-02T10:43:00;100187.31;;;18.08;48.01
68145;BME280;55400;51.824;-0.196;2023-07-02T10:47:39;100174.85;;;18.16;48.42
68145;BME280;55400;51.824;-0.196;2023-07-02T10:51:10;100174.85;;;18.19;48.42
68145;BME280;55400;51.824;-0.196;2023-07-02T10:55:00;100180.87000000001;;;18.24;48.71
68145;BME280;55400;51.824;-0.196;2023-07-02T10:59:00;100190.16;;;18.15;48.59
68145;BME280;55400;51.824;-0.196;2023-07-02T11:03:02;100194.31;;;18.18;48.85
68145;BME280;55400;51.824;-0.196;2023-07-02T11:07:00;100188.29;;;18.24;48.94
68145;BME280;55400;51.824;-0.196;2023-07-02T11:11:04;100188.01;;;18.38;48.33
68145;BME280;55400;51.824;-0.196;2023-07-02T11:15:08;100191.17;;;18.41;48.22
68145;BME280;55400;51.824;-0.196;2023-07-02T11:19:08;100191.17;;;18.43;47.65
68145;BME280;55400;51.824;-0.196;2023-07-02T11:23:00;100190.62;;;18.48;48.23
68145;BME280;55400;51.824;-0.196;2023-07-02T11:27:01;100183.98;;;18.63;48.45
68145;BME280;55400;51.824;-0.196;2023-07-02T11:31:01;100177.59;;;18.65;47.00
68145;BME280;55400;51.824;-0.196;2023-07-02T11:35:00;100180.86;;;18.55;46.86
68145;BME280;55400;51.824;-0.196;2023-07-02T11:39:00;100180.86;;;18.31;46.86
68145;BME280;55400;51.824;-0.196;2023-07-02T11:43:01;100178.3;;;18.22;47.98
68145;BME280;55400;51.824;-0.196;2023-07-02T11:51:01;100172.99;;;18.26;47.38
68145;BME280;55400;51.824;-0.196;2023-07-02T11:55:00;100170.73000000001;;;18.41;47.57
68145;BME280;55400;51.824;-0.196;2023-07-02T11:59:00;100174.3;;;18.56;47.57
68145;BME280;55400;51.824;-0.196;2023-07-02T12:03:00;100188.65;;;18.64;47.63
68145;BME280;55400;51.824;-0.196;2023-07-02T12:07:01;100188.65;;;18.70;47.63
68145;BME280;55400;51.824;-0.196;2023-07-02T12:11:00;100189.45;;;18.68;47.43
68145;BME280;55400;51.824;-0.196;2023-07-02T12:15:01;100187.0;;;18.77;46.93
68145;BME280;55400;51.824;-0.196;2023-07-02T12:19:00;100193.75;;;18.80;46.82
68145;BME280;55400;51.824;-0.196;2023-07-02T12:23:01;100185.75;;;18.77;45.99
68145;BME280;55400;51.824;-0.196;2023-07-02T12:27:01;100174.39;;;18.83;45.55
68145;BME280;55400;51.824;-0.196;2023-07-02T12:39:01;100182.81;;;18.79;45.65
68145;BME280;55400;51.824;-0.196;2023-07-02T12:43:01;100183.54000000001;;;18.91;45.52
68145;BME280;55400;51.824;-0.196;2023-07-02T12:47:01;100182.05;;;19.05;44.04
68145;BME280;55400;51.824;-0.196;2023-07-02T12:51:01;100176.73;;;19.12;44.26
68145;BME280;55400;51.824;-0.196;2023-07-02T12:55:01;100165.45;;;19.25;44.16
68145;BME280;55400;51.824;-0.196;2023-07-02T12:59:02;100170.39;;;19.27;43.38
68145;BME280;55400;51.824;-0.196;2023-07-02T13:03:01;100170.39;;;19.34;43.38
68145;BME280;55400;51.824;-0.196;2023-07-02T13:07:01;100163.58;;;19.67;43.00
68145;BME280;55400;51.824;-0.196;2023-07-02T13:15:01;100154.78;;;19.60;41.89
68145;BME280;55400;51.824;-0.196;2023-07-02T13:19:01;100154.78;;;19.41;41.62
68145;BME280;55400;51.824;-0.196;2023-07-02T13:23:02;100160.53;;;19.52;40.57
68145;BME280;55400;51.824;-0.196;2023-07-02T13:27:02;100155.28;;;19.77;42.31
68145;BME280;55400;51.824;-0.196;2023-07-02T13:31:01;100164.29000000001;;;19.86;40.91
68145;BME280;55400;51.824;-0.196;2023-07-02T13:35:01;100164.92;;;19.98;41.35
68145;BME280;55400;51.824;-0.196;2023-07-02T13:39:01;100163.86;;;20.41;41.35
68145;BME280;55400;51.824;-0.196;2023-07-02T13:43:01;100166.72;;;20.58;41.83
68145;BME280;55400;51.824;-0.196;2023-07-02T13:47:01;100181.05;;;20.36;38.82
68145;BME280;55400;51.824;-0.196;2023-07-02T13:51:01;100181.05;;;20.00;40.24
68145;BME280;55400;51.824;-0.196;2023-07-02T13:55:01;100166.22;;;19.98;39.58
68145;BME280;55400;51.824;-0.196;2023-07-02T13:59:01;100161.94;;;20.09;41.38
68145;BME280;55400;51.824;-0.196;2023-07-02T14:03:01;100162.01999999999;;;20.10;41.13
68145;BME280;55400;51.824;-0.196;2023-07-02T14:07:02;100161.64;;;20.12;41.11
68145;BME280;55400;51.824;-0.196;2023-07-02T14:11:01;100161.64;;;20.19;40.82
68145;BME280;55400;51.824;-0.196;2023-07-02T14:15:01;100161.28;;;20.00;39.45
68145;BME280;55400;51.824;-0.196;2023-07-02T14:19:01;100172.11;;;19.96;39.45
68145;BME280;55400;51.824;-0.196;2023-07-02T14:23:01;100172.11;;;19.89;40.80
68145;BME280;55400;51.824;-0.196;2023-07-02T14:27:01;100172.74;;;19.76;39.25
68145;BME280;55400;51.824;-0.196;2023-07-02T14:31:02;100162.31;;;19.78;39.49
68145;BME280;55400;51.824;-0.196;2023-07-02T14:35:01;100151.67;;;19.83;40.03
68145;BME280;55400;51.824;-0.196;2023-07-02T14:43:01;100145.75;;;20.01;40.03
68145;BME280;55400;51.824;-0.196;2023-07-02T14:47:01;100144.84;;;19.92;40.22
68145;BME280;55400;51.824;-0.196;2023-07-02T14:51:01;100146.11;;;19.87;38.52
68145;BME280;55400;51.824;-0.196;2023-07-02T14:55:01;100163.35;;;20.00;40.24
68145;BME280;55400;51.824;-0.196;2023-07-02T14:59:01;100152.34;;;20.17;40.01
68145;BME280;55400;51.824;-0.196;2023-07-02T15:03:01;100144.31;;;20.35;39.73
68145;BME280;55400;51.824;-0.196;2023-07-02T15:07:01;100138.97;;;20.50;39.77
68145;BME280;55400;51.824;-0.196;2023-07-02T15:11:01;100140.16;;;20.58;40.28
68145;BME280;55400;51.824;-0.196;2023-07-02T15:23:01;100136.01999999999;;;20.57;39.17
68145;BME280;55400;51.824;-0.196;2023-07-02T15:27:01;100148.63;;;20.56;39.66
68145;BME280;55400;51.824;-0.196;2023-07-02T15:31:02;100158.23000000001;;;20.48;39.28
68145;BME280;55400;51.824;-0.196;2023-07-02T15:35:01;100137.13;;;20.45;39.24
68145;BME280;55400;51.824;-0.196;2023-07-02T15:39:01;100135.92;;;20.38;38.81
68145;BME280;55400;51.824;-0.196;2023-07-02T15:43:01;100137.67;;;20.36;39.30
68145;BME280;55400;51.824;-0.196;2023-07-02T15:47:02;100131.76999999999;;;20.35;38.45
68145;BME280;55400;51.824;-0.196;2023-07-02T15:51:02;100132.5;;;20.26;39.24
68145;BME280;55400;51.824;-0.196;2023-07-02T15:55:03;100124.45;;;20.17;39.13
68145;BME280;55400;51.824;-0.196;2023-07-02T15:59:01;100120.73000000001;;;20.11;38.90
68145;BME280;55400;51.824;-0.196;2023-07-02T16:03:02;100123.01;;;20.07;38.36
68145;BME280;55400;51.824;-0.196;2023-07-02T16:07:01;100119.59000000001;;;20.10;39.13
68145;BME280;55400;51.824;-0.196;2023-07-02T16:11:04;100113.03;;;20.12;38.99
68145;BME280;55400;51.824;-0.196;2023-07-02T16:15:01;100119.33;;;20.08;39.34
68145;BME280;55400;51.824;-0.196;2023-07-02T16:19:02;100118.17;;;20.18;38.62
68145;BME280;55400;51.824;-0.196;2023-07-02T16:23:02;100118.75;;;20.29;39.49
68145;BME280;55400;51.824;-0.196;2023-07-02T16:27:06;100123.15999999999;;;20.36;39.68
68145;BME280;55400;51.824;-0.196;2023-07-02T16:31:01;100128.74;;;20.21;39.10
68145;BME280;55400;51.824;-0.196;2023-07-02T16:35:01;100128.74;;;20.06;39.10
68145;BME280;55400;51.824;-0.196;2023-07-02T16:39:02;100110.91;;;20.03;39.44
68145;BME280;55400;51.824;-0.196;2023-07-02T16:43:02;100110.91;;;20.11;39.44
68145;BME280;55400;51.824;-0.196;2023-07-02T16:47:02;100119.67;;;20.22;39.77
68145;BME280;55400;51.824;-0.196;2023-07-02T16:51:02;100112.37999999999;;;20.37;38.66
68145;BME280;55400;51.824;-0.196;2023-07-02T16:55:01;100112.37999999999;;;20.35;38.64
68145;BME280;55400;51.824;-0.196;2023-07-02T16:59:02;100109.0;;;20.21;38.34
68145;BME280;55400;51.824;-0.196;2023-07-02T17:03:01;100109.0;;;20.14;38.92
68145;BME280;55400;51.824;-0.196;2023-07-02T17:07:02;100111.51;;;20.15;39.26
68145;BME280;55400;51.824;-0.196;2023-07-02T17:11:02;100111.51;;;20.06;39.26
68145;BME280;55400;51.824;-0.196;2023-07-02T17:15:02;100103.01;;;20.02;38.89
68145;BME280;55400;51.824;-0.196;2023-07-02T17:19:01;100101.43000000001;;;20.05;39.57
68145;BME280;55400;51.824;-0.196;2023-07-02T17:23:01;100101.43000000001;;;20.03;39.33
68145;BME280;55400;51.824;-0.196;2023-07-02T17:27:02;100087.75;;;19.95;39.63
68145;BME280;55400;51.824;-0.196;2023-07-02T17:31:02;100101.92;;;19.89;39.05
68145;BME280;55400;51.824;-0.196;2023-07-02T17:35:02;100101.92;;;19.82;39.55
68145;BME280;55400;51.824;-0.196;2023-07-02T17:39:02;100096.82;;;19.83;39.53
68145;BME280;55400;51.824;-0.196;2023-07-02T17:43:01;100088.16;;;19.92;39.62
68145;BME280;55400;51.824;-0.196;2023-07-02T17:47:02;100091.27;;;19.81;39.68
68145;BME280;55400;51.824;-0.196;2023-07-02T17:51:01;100086.77;;;19.76;39.34
68145;BME280;55400;51.824;-0.196;2023-07-02T18:00:04;100079.16;;;19.81;39.53
68145;BME280;55400;51.824;-0.196;2023-07-02T18:03:01;100079.16;;;19.69;39.53
68145;BME280;55400;51.824;-0.196;2023-07-02T18:07:03;100072.85;;;19.59;39.22
68145;BME280;55400;51.824;-0.196;2023-07-02T18:11:02;100072.85;;;19.55;39.65
68145;BME280;55400;51.824;-0.196;2023-07-02T18:15:02;100074.37999999999;;;19.52;39.26
68145;BME280;55400;51.824;-0.196;2023-07-02T18:19:01;100077.61;;;19.55;39.71
68145;BME280;55400;51.824;-0.196;2023-07-02T18:23:02;100072.73;;;19.74;39.80
68145;BME280;55400;51.824;-0.196;2023-07-02T18:27:02;100071.25;;;19.77;39.44
68145;BME280;55400;51.824;-0.196;2023-07-02T18:31:02;100078.21;;;19.69;39.72
68145;BME280;55400;51.824;-0.196;2023-07-02T18:35:02;100078.21;;;19.67;39.72
68145;BME280;55400;51.824;-0.196;2023-07-02T18:39:02;100076.84000000001;;;19.68;39.98
68145;BME280;55400;51.824;-0.196;2023-07-02T18:43:02;100078.28;;;19.64;40.11
68145;BME280;55400;51.824;-0.196;2023-07-02T18:47:03;100073.29999999999;;;19.60;40.11
68145;BME280;55400;51.824;-0.196;2023-07-02T18:51:03;100073.29999999999;;;19.63;40.14
68145;BME280;55400;51.824;-0.196;2023-07-02T18:55:02;100079.92;;;19.51;40.15
68145;BME280;55400;51.824;-0.196;2023-07-02T18:59:02;100087.65;;;19.43;40.04
68145;BME280;55400;51.824;-0.196;2023-07-02T19:03:02;100087.65;;;19.34;40.62
68145;BME280;55400;51.824;-0.196;2023-07-02T19:07:02;100080.64;;;19.32;40.42
68145;BME280;55400;51.824;-0.196;2023-07-02T19:11:02;100084.66;;;19.29;40.76
68145;BME280;55400;51.824;-0.196;2023-07-02T19:15:02;100084.66;;;19.28;40.89
68145;BME280;55400;51.824;-0.196;2023-07-02T19:19:02;100079.02;;;19.16;40.62
68145;BME280;55400;51.824;-0.196;2023-07-02T19:23:02;100079.02;;;19.07;40.62
68145;BME280;55400;51.824;-0.196;2023-07-02T19:27:02;100078.52;;;19.02;40.87
68145;BME280;55400;51.824;-0.196;2023-07-02T19:31:02;100078.52;;;19.04;41.17
68145;BME280;55400;51.824;-0.196;2023-07-02T19:35:02;100080.62999999999;;;19.00;41.29
68145;BME280;55400;51.824;-0.196;2023-07-02T19:43:02;100082.05;;;18.96;41.56
68145;BME280;55400;51.824;-0.196;2023-07-02T19:47:02;100080.98999999999;;;18.92;41.68
68145;BME280;55400;51.824;-0.196;2023-07-02T19:51:03;100080.66;;;18.88;41.89
68145;BME280;55400;51.824;-0.196;2023-07-02T19:59:02;100093.39;;;18.85;42.20
68145;BME280;55400;51.824;-0.196;2023-07-02T20:03:02;100091.04999999999;;;18.77;42.27
68145;BME280;55400;51.824;-0.196;2023-07-02T20:07:02;100095.65;;;18.69;42.24
68145;BME280;55400;51.824;-0.196;2023-07-02T20:11:02;100095.65;;;18.70;42.45
68145;BME280;55400;51.824;-0.196;2023-07-02T20:15:02;100096.81;;;18.67;42.48
68145;BME280;55400;51.824;-0.196;2023-07-02T20:19:02;100098.67;;;18.59;42.41
68145;BME280;55400;51.824;-0.196;2023-07-02T20:23:02;100098.1;;;18.61;42.70
68145;BME280;55400;51.824;-0.196;2023-07-02T20:27:02;100099.89;;;18.60;42.76
68145;BME280;55400;51.824;-0.196;2023-07-02T20:31:02;100100.31;;;18.59;42.82
68145;BME280;55400;51.824;-0.196;2023-07-02T20:35:02;100103.77;;;18.55;42.88
68145;BME280;55400;51.824;-0.196;2023-07-02T20:39:02;100102.21;;;18.50;42.97
68145;BME280;55400;51.824;-0.196;2023-07-02T20:43:02;100103.16;;;18.45;42.89
68145;BME280;55400;51.824;-0.196;2023-07-02T20:47:02;100107.3;;;18.43;42.89
68145;BME280;55400;51.824;-0.196;2023-07-02T20:51:02;100112.12000000001;;;18.38;42.88
68145;BME280;55400;51.824;-0.196;2023-07-02T20:55:02;100112.12000000001;;;18.32;43.06
68145;BME280;55400;51.824;-0.196;2023-07-02T20:59:02;100117.11;;;18.26;43.25